Time;durP1;ratioP1;P1;durP2;ratioP2;P2;SDS_P1;SDS_P2;PMS_P1;PMS_P2;Temp;Humidity;BMP_temperature;BMP_pressure;BME280_temperature;BME280_humidity;BME280_pressure;Samples;Min_cycle;Max_cycle;Signal;HPM_P1;HPM_P2
2023/06/01 00:02:00;;;;;;;4.10;3.70;;;21.10;20.70;;;;;;10436898;28;20244;-78
2023/06/01 00:07:05;;;;;;;3.90;3.60;;;21.00;21.20;;;;;;10460780;28;20896;-77
2023/06/01 00:12:09;;;;;;;4.67;3.43;;;20.90;21.00;;;;;;10417588;28;20802;-78
2023/06/01 00:17:14;;;;;;;4.07;3.67;;;20.80;21.20;;;;;;10478835;28;20266;-78
2023/06/01 00:22:18;;;;;;;3.70;3.40;;;20.80;21.60;;;;;;10436602;28;20248;-78
2023/06/01 00:27:21;;;;;;;4.40;4.00;;;20.70;21.20;;;;;;10452525;28;20697;-77
2023/06/01 00:32:26;;;;;;;4.23;3.60;;;20.50;21.40;;;;;;10458100;28;20343;-77
2023/06/01 00:37:29;;;;;;;4.07;3.67;;;20.50;21.80;;;;;;10443811;28;20237;-77
2023/06/01 00:42:32;;;;;;;4.17;3.50;;;20.40;21.60;;;;;;10471323;28;20247;-77
2023/06/01 00:47:41;;;;;;;4.00;3.60;;;20.30;21.60;;;;;;10463811;28;20932;-77
2023/06/01 00:52:45;;;;;;;3.93;3.63;;;20.30;22.50;;;;;;10482350;28;20228;-78
2023/06/01 00:57:51;;;;;;;4.10;3.70;;;20.20;21.80;;;;;;10439473;28;20232;-78
2023/06/01 01:03:06;;;;;;;4.00;3.70;;;20.10;22.00;;;;;;10468495;28;20315;-78
2023/06/01 01:08:15;;;;;;;5.17;3.67;;;20.00;22.70;;;;;;10477579;28;20216;-78
2023/06/01 01:13:27;;;;;;;4.73;4.00;;;19.90;22.60;;;;;;10462127;28;20756;-78
2023/06/01 01:18:37;;;;;;;4.40;3.90;;;19.90;22.60;;;;;;10431398;28;20914;-78
2023/06/01 01:23:58;;;;;;;4.00;3.70;;;19.80;23.00;;;;;;10461578;28;20257;-78
2023/06/01 01:29:09;;;;;;;3.87;3.40;;;19.70;23.10;;;;;;10443765;28;20240;-78
2023/06/01 01:34:14;;;;;;;4.40;3.77;;;19.60;23.00;;;;;;10465255;28;20312;-78
2023/06/01 01:39:17;;;;;;;4.03;3.63;;;19.50;22.50;;;;;;10459967;28;20693;-78
2023/06/01 01:44:22;;;;;;;3.87;3.10;;;19.50;22.70;;;;;;10431246;28;20246;-78
2023/06/01 01:49:32;;;;;;;3.90;3.50;;;19.50;23.10;;;;;;10429916;28;20232;-78
2023/06/01 01:54:38;;;;;;;4.17;3.77;;;19.40;23.40;;;;;;10429387;28;20226;-78
2023/06/01 01:59:44;;;;;;;4.77;4.00;;;19.30;23.20;;;;;;10474853;28;20706;-78
2023/06/01 02:04:47;;;;;;;4.30;3.90;;;19.30;23.30;;;;;;10471126;28;20317;-78
2023/06/01 02:09:50;;;;;;;4.00;3.60;;;19.20;23.00;;;;;;10425601;28;20237;-78
2023/06/01 02:14:55;;;;;;;4.03;3.73;;;19.10;23.00;;;;;;10441496;28;20308;-78
2023/06/01 02:19:58;;;;;;;4.10;3.70;;;19.10;23.40;;;;;;10472511;28;20263;-77
2023/06/01 02:25:04;;;;;;;5.27;3.90;;;19.10;23.20;;;;;;10472001;28;20315;-77
2023/06/01 02:30:10;;;;;;;3.80;3.47;;;19.00;23.20;;;;;;10472904;28;20236;-77
2023/06/01 02:35:13;;;;;;;3.90;3.60;;;19.00;23.70;;;;;;10438654;28;20232;-77
2023/06/01 02:40:16;;;;;;;3.70;3.40;;;18.90;23.30;;;;;;10426308;28;20229;-77
2023/06/01 02:45:21;;;;;;;3.47;3.17;;;18.90;23.40;;;;;;10428323;28;20257;-78
2023/06/01 02:50:24;;;;;;;3.40;3.10;;;18.80;23.60;;;;;;10435665;28;20662;-77
2023/06/01 02:55:28;;;;;;;4.37;3.53;;;18.70;23.40;;;;;;10480817;28;20827;-77
2023/06/01 03:00:32;;;;;;;3.27;2.97;;;18.70;23.60;;;;;;10429851;28;20240;-77
2023/06/01 03:05:37;;;;;;;3.67;3.07;;;18.60;23.90;;;;;;10427318;28;20647;-78
2023/06/01 03:10:40;;;;;;;4.43;4.00;;;18.50;24.30;;;;;;10455588;28;20316;-77
2023/06/01 03:15:45;;;;;;;4.20;3.77;;;18.50;24.00;;;;;;10472339;28;20312;-78
2023/06/01 03:20:49;;;;;;;4.33;3.93;;;18.40;24.20;;;;;;10453557;28;20232;-78
2023/06/01 03:25:52;;;;;;;4.60;4.20;;;18.30;24.20;;;;;;10457016;28;20244;-77
2023/06/01 03:30:56;;;;;;;4.07;3.70;;;18.20;24.10;;;;;;10471590;28;20319;-77
2023/06/01 03:36:00;;;;;;;4.00;3.60;;;18.10;24.10;;;;;;10430985;28;20263;-77
2023/06/01 03:41:03;;;;;;;4.27;3.87;;;18.00;24.00;;;;;;10421190;28;20701;-77
2023/06/01 03:46:08;;;;;;;4.10;3.73;;;17.90;23.90;;;;;;10447210;28;20235;-77
2023/06/01 03:51:12;;;;;;;4.17;3.77;;;17.80;24.40;;;;;;10445290;28;20240;-77
2023/06/01 03:56:15;;;;;;;4.50;4.10;;;17.80;24.30;;;;;;10412817;28;20322;-78
2023/06/01 04:01:20;;;;;;;4.47;4.07;;;17.70;24.40;;;;;;10456672;28;20320;-77
2023/06/01 04:06:29;;;;;;;4.67;4.07;;;17.70;24.90;;;;;;10464023;28;20233;-78
2023/06/01 04:11:32;;;;;;;4.47;4.07;;;17.60;25.50;;;;;;10494667;28;20227;-78
2023/06/01 04:16:37;;;;;;;4.53;4.07;;;17.60;24.70;;;;;;10495287;28;20303;-77
2023/06/01 04:21:40;;;;;;;4.93;4.10;;;17.60;25.20;;;;;;10460505;28;20232;-77
2023/06/01 04:26:45;;;;;;;4.70;4.30;;;17.50;24.90;;;;;;10494518;28;20240;-77
2023/06/01 04:31:50;;;;;;;4.80;4.40;;;17.50;25.30;;;;;;10438880;28;20897;-77
2023/06/01 04:36:54;;;;;;;4.47;3.97;;;17.50;25.60;;;;;;10411785;28;20225;-77
2023/06/01 04:41:57;;;;;;;5.47;4.67;;;17.50;25.30;;;;;;10427409;28;20312;-77
2023/06/01 04:47:08;;;;;;;5.10;4.70;;;17.50;25.30;;;;;;10411330;28;20305;-77
2023/06/01 04:52:12;;;;;;;5.73;5.13;;;17.50;26.60;;;;;;10468308;28;20407;-78
2023/06/01 04:57:16;;;;;;;5.60;5.10;;;17.50;25.60;;;;;;10486975;28;20234;-77
2023/06/01 05:02:21;;;;;;;5.93;4.73;;;17.50;25.60;;;;;;10477730;28;20233;-77
2023/06/01 05:07:24;;;;;;;4.63;4.13;;;17.60;26.10;;;;;;10492371;28;20936;-77
2023/06/01 05:12:27;;;;;;;4.83;4.23;;;17.60;25.90;;;;;;10478468;28;20251;-78
2023/06/01 05:17:32;;;;;;;4.10;3.70;;;17.60;25.80;;;;;;10423955;28;20229;-77
2023/06/01 05:22:35;;;;;;;4.70;3.23;;;17.80;25.90;;;;;;10409804;28;20233;-77
2023/06/01 05:27:39;;;;;;;4.67;3.40;;;17.90;25.60;;;;;;10409964;28;20312;-77
2023/06/01 05:32:50;;;;;;;4.20;3.57;;;18.10;25.80;;;;;;10419397;28;20248;-78
2023/06/01 05:37:55;;;;;;;3.90;3.60;;;18.20;26.60;;;;;;10457788;28;20239;-77
2023/06/01 05:42:58;;;;;;;5.00;3.50;;;18.40;26.20;;;;;;10457323;28;20316;-79
2023/06/01 05:48:03;;;;;;;4.53;3.60;;;18.50;26.20;;;;;;10474223;28;20236;-74
2023/06/01 05:53:07;;;;;;;3.90;3.50;;;18.70;26.60;;;;;;10430678;28;20920;-77
2023/06/01 05:58:10;;;;;;;3.63;3.33;;;18.90;26.30;;;;;;10416081;28;20229;-77
2023/06/01 06:03:15;;;;;;;3.40;3.03;;;19.00;26.40;;;;;;10415934;28;20234;-77
2023/06/01 06:08:19;;;;;;;4.07;2.70;;;19.20;26.50;;;;;;10430519;28;20225;-76
2023/06/01 06:13:22;;;;;;;3.00;2.70;;;19.30;26.00;;;;;;10455672;28;20709;-78
2023/06/01 06:18:28;;;;;;;3.40;3.10;;;19.50;26.00;;;;;;10454009;28;20252;-78
2023/06/01 06:23:32;;;;;;;3.87;2.90;;;19.70;26.00;;;;;;10457343;28;20242;-79
2023/06/01 06:28:35;;;;;;;3.30;3.00;;;19.80;25.70;;;;;;10440981;28;20320;-75
2023/06/01 06:33:40;;;;;;;4.83;2.90;;;20.00;25.90;;;;;;10427112;28;20232;-75
2023/06/01 06:38:44;;;;;;;4.27;3.00;;;20.20;26.10;;;;;;10430464;28;20238;-74
2023/06/01 06:43:47;;;;;;;3.63;3.10;;;20.40;26.00;;;;;;10427209;28;20233;-77
2023/06/01 06:48:52;;;;;;;3.50;3.20;;;20.60;25.70;;;;;;10424083;28;20226;-77
2023/06/01 06:53:55;;;;;;;3.63;3.33;;;20.80;26.10;;;;;;10424507;28;21064;-73
2023/06/01 06:58:58;;;;;;;4.40;3.20;;;21.00;26.00;;;;;;10429217;28;20228;-77
2023/06/01 07:04:11;;;;;;;3.93;3.37;;;21.20;26.10;;;;;;10433583;28;20228;-76
2023/06/01 07:09:14;;;;;;;4.07;3.60;;;21.40;26.30;;;;;;10431234;28;20239;-74
2023/06/01 07:14:18;;;;;;;5.50;3.50;;;21.60;26.40;;;;;;10431857;28;20226;-74
2023/06/01 07:19:22;;;;;;;6.03;3.30;;;21.80;26.30;;;;;;10426833;28;20233;-74
2023/06/01 07:24:26;;;;;;;5.07;3.50;;;22.00;26.10;;;;;;10427197;28;20652;-75
2023/06/01 07:29:29;;;;;;;3.63;3.23;;;22.20;26.00;;;;;;10426106;28;20550;-74
2023/06/01 07:34:34;;;;;;;3.20;2.90;;;22.50;26.10;;;;;;10429174;28;20232;-72
2023/06/01 07:39:37;;;;;;;3.20;2.90;;;22.60;26.00;;;;;;10433554;28;20237;-72
2023/06/01 07:44:42;;;;;;;3.63;2.90;;;22.80;25.70;;;;;;10429881;28;20226;-75
2023/06/01 07:49:47;;;;;;;4.03;3.30;;;23.10;25.50;;;;;;10429475;28;20240;-72
2023/06/01 07:54:51;;;;;;;3.83;3.10;;;23.30;25.00;;;;;;10431607;28;20236;-72
2023/06/01 07:59:55;;;;;;;3.40;3.10;;;23.50;25.30;;;;;;10433933;28;20667;-72
2023/06/01 08:04:59;;;;;;;3.30;3.00;;;23.70;24.90;;;;;;10440612;28;20882;-74
2023/06/01 08:10:02;;;;;;;3.70;3.30;;;24.00;24.90;;;;;;10439476;28;20320;-72
2023/06/01 08:15:06;;;;;;;3.90;3.00;;;24.20;24.50;;;;;;10421141;28;20222;-73
2023/06/01 08:20:12;;;;;;;4.40;3.27;;;24.40;24.30;;;;;;10413951;28;20741;-72
2023/06/01 08:25:17;;;;;;;3.60;3.30;;;24.70;24.20;;;;;;10459962;28;20251;-73
2023/06/01 08:30:21;;;;;;;3.47;3.17;;;24.90;24.10;;;;;;10432765;28;20685;-75
2023/06/01 08:35:26;;;;;;;3.60;3.27;;;25.20;23.80;;;;;;10440717;28;20228;-74
2023/06/01 08:40:31;;;;;;;5.13;3.40;;;25.40;23.40;;;;;;10442447;28;21031;-74
2023/06/01 08:45:34;;;;;;;3.60;3.03;;;25.70;23.40;;;;;;10426437;28;20232;-74
2023/06/01 08:50:40;;;;;;;4.10;3.70;;;25.80;23.20;;;;;;10429072;28;20233;-74
2023/06/01 08:55:43;;;;;;;4.33;3.70;;;26.00;22.90;;;;;;10425316;28;20239;-74
2023/06/01 09:00:49;;;;;;;3.60;3.20;;;26.10;22.70;;;;;;10425549;28;20248;-74
2023/06/01 09:05:54;;;;;;;3.97;3.57;;;26.20;22.20;;;;;;10433306;28;20963;-75
2023/06/01 09:10:59;;;;;;;4.20;3.53;;;26.40;22.80;;;;;;10438223;28;20233;-75
2023/06/01 09:16:03;;;;;;;4.93;3.30;;;26.50;22.20;;;;;;10431568;28;20232;-75
2023/06/01 09:21:15;;;;;;;3.70;3.40;;;26.70;22.60;;;;;;10426429;28;20225;-77
2023/06/01 09:26:18;;;;;;;3.77;3.47;;;26.90;21.60;;;;;;10431918;28;20222;-76
2023/06/01 09:31:39;;;;;;;4.03;3.40;;;27.00;21.50;;;;;;10424580;28;20237;-77
2023/06/01 09:36:44;;;;;;;3.57;3.27;;;27.20;20.70;;;;;;10430303;28;20239;-76
2023/06/01 09:41:50;;;;;;;3.47;3.13;;;27.30;21.00;;;;;;10435257;28;20328;-75
2023/06/01 09:46:55;;;;;;;5.40;3.50;;;27.50;20.30;;;;;;10441394;28;20251;-76
2023/06/01 09:52:14;;;;;;;3.97;3.67;;;27.70;19.90;;;;;;10434176;28;20237;-75
2023/06/01 09:57:24;;;;;;;3.50;3.20;;;27.70;19.30;;;;;;10436051;28;20231;-75
2023/06/01 10:02:27;;;;;;;4.47;3.63;;;27.80;19.50;;;;;;10426430;28;20228;-75
2023/06/01 10:07:33;;;;;;;4.97;4.03;;;27.90;20.00;;;;;;10428491;28;20233;-76
2023/06/01 10:12:36;;;;;;;6.00;3.50;;;28.00;19.50;;;;;;10405144;28;20723;-75
2023/06/01 10:17:42;;;;;;;5.73;3.73;;;28.10;20.10;;;;;;10427838;28;20320;-74
2023/06/01 10:22:47;;;;;;;4.00;3.60;;;28.30;19.90;;;;;;10440409;28;20315;-75
2023/06/01 10:27:58;;;;;;;4.03;3.43;;;28.40;19.30;;;;;;10435933;28;20239;-75
2023/06/01 10:33:01;;;;;;;3.90;3.50;;;28.50;18.60;;;;;;10436409;28;20229;-76
2023/06/01 10:38:27;;;;;;;3.83;3.53;;;28.60;19.20;;;;;;10437266;28;20279;-75
2023/06/01 10:43:43;;;;;;;3.90;3.60;;;28.60;18.50;;;;;;10445591;28;20279;-76
2023/06/01 10:48:53;;;;;;;5.17;3.30;;;28.80;18.30;;;;;;10429213;28;20310;-75
2023/06/01 10:54:31;;;;;;;3.67;3.37;;;28.90;17.60;;;;;;10448902;28;20335;-76
2023/06/01 10:59:34;;;;;;;4.30;3.60;;;28.90;18.00;;;;;;10445156;28;20282;-75
2023/06/01 11:04:39;;;;;;;3.53;3.23;;;29.00;18.10;;;;;;10438845;28;20574;-76
2023/06/01 11:09:46;;;;;;;3.50;3.20;;;29.00;18.00;;;;;;10432912;28;20233;-75
2023/06/01 11:15:11;;;;;;;3.93;3.60;;;29.00;17.50;;;;;;10426970;28;20325;-77
2023/06/01 11:20:20;;;;;;;3.93;3.60;;;29.00;17.50;;;;;;10435081;28;20320;-75
2023/06/01 11:25:27;;;;;;;3.90;3.60;;;29.10;17.10;;;;;;10430844;28;20634;-75
2023/06/01 11:30:31;;;;;;;4.07;3.70;;;29.20;17.30;;;;;;10435062;28;20323;-76
2023/06/01 11:35:34;;;;;;;4.20;3.80;;;29.30;17.30;;;;;;10429248;28;20227;-76
2023/06/01 11:40:39;;;;;;;4.00;3.60;;;29.40;16.90;;;;;;10429371;28;20236;-76
2023/06/01 11:45:42;;;;;;;4.53;3.53;;;29.40;16.60;;;;;;10411723;28;20226;-75
2023/06/01 11:50:48;;;;;;;3.90;3.47;;;29.30;16.80;;;;;;10425454;28;20314;-75
2023/06/01 11:55:55;;;;;;;4.70;4.10;;;29.30;16.70;;;;;;10433856;28;20225;-77
2023/06/01 12:00:59;;;;;;;4.40;3.80;;;29.40;15.80;;;;;;10428552;28;20585;-76
2023/06/01 12:06:02;;;;;;;3.80;3.50;;;29.50;16.20;;;;;;10430344;28;20217;-76
2023/06/01 12:11:08;;;;;;;4.87;4.03;;;29.40;16.90;;;;;;10422548;28;20789;-74
2023/06/01 12:16:11;;;;;;;4.00;3.60;;;29.40;15.50;;;;;;10435468;28;20247;-76
2023/06/01 12:21:24;;;;;;;4.17;3.80;;;29.40;15.90;;;;;;10444467;28;20240;-76
2023/06/01 12:26:38;;;;;;;3.93;3.40;;;29.40;15.70;;;;;;10436220;28;20225;-76
2023/06/01 12:31:54;;;;;;;4.97;3.67;;;29.50;15.10;;;;;;10435940;28;20229;-75
2023/06/01 12:36:57;;;;;;;3.57;3.30;;;29.60;15.00;;;;;;10441379;28;20255;-77
2023/06/01 12:42:02;;;;;;;4.13;3.73;;;29.70;15.90;;;;;;10434338;28;20233;-75
2023/06/01 12:47:06;;;;;;;4.47;3.33;;;29.80;15.50;;;;;;10433646;28;20255;-74
2023/06/01 12:52:10;;;;;;;5.50;4.00;;;29.80;15.70;;;;;;10437211;28;20228;-77
2023/06/01 12:57:15;;;;;;;4.30;3.53;;;29.90;15.80;;;;;;10439448;28;20311;-74
2023/06/01 13:02:19;;;;;;;3.70;3.40;;;29.90;14.40;;;;;;10428010;28;20319;-75
2023/06/01 13:07:23;;;;;;;3.57;3.27;;;29.80;14.50;;;;;;10439033;28;20238;-74
2023/06/01 13:12:28;;;;;;;3.57;3.27;;;29.70;14.60;;;;;;10438324;28;20229;-74
2023/06/01 13:17:32;;;;;;;3.70;3.40;;;29.60;14.90;;;;;;10444348;28;20312;-74
2023/06/01 13:22:35;;;;;;;3.80;3.40;;;29.60;15.00;;;;;;10432142;28;20236;-74
2023/06/01 13:27:40;;;;;;;3.50;3.20;;;29.60;15.00;;;;;;10441563;28;20227;-75
2023/06/01 13:32:44;;;;;;;3.80;3.50;;;29.60;14.80;;;;;;10435570;28;20244;-74
2023/06/01 13:37:47;;;;;;;4.53;3.50;;;29.60;15.10;;;;;;10439933;28;20225;-73
2023/06/01 13:42:52;;;;;;;3.50;3.20;;;29.70;15.10;;;;;;10437705;28;20234;-74
2023/06/01 13:47:55;;;;;;;3.60;3.20;;;29.80;14.50;;;;;;10444450;28;20315;-73
2023/06/01 13:52:59;;;;;;;4.23;3.70;;;29.80;14.40;;;;;;10440741;28;20951;-75
2023/06/01 13:58:03;;;;;;;3.60;3.30;;;29.80;14.20;;;;;;10436939;28;20320;-74
2023/06/01 14:03:06;;;;;;;3.43;3.13;;;29.80;13.90;;;;;;10429727;28;20311;-75
2023/06/01 14:08:10;;;;;;;3.53;3.23;;;29.70;14.70;;;;;;10433488;28;20257;-77
2023/06/01 14:13:14;;;;;;;4.30;3.57;;;29.70;14.70;;;;;;10442619;28;20384;-74
2023/06/01 14:18:18;;;;;;;3.50;2.97;;;29.80;14.20;;;;;;10440767;28;20261;-75
2023/06/01 14:23:21;;;;;;;3.60;3.30;;;29.80;14.30;;;;;;10444367;28;20244;-74
2023/06/01 14:28:25;;;;;;;4.47;3.13;;;29.90;14.00;;;;;;10442533;28;20225;-75
2023/06/01 14:33:29;;;;;;;3.90;3.10;;;30.00;13.80;;;;;;10442771;28;20607;-74
2023/06/01 14:38:32;;;;;;;3.13;2.90;;;30.10;13.70;;;;;;10443072;28;20316;-74
2023/06/01 14:43:38;;;;;;;3.13;2.93;;;30.10;13.30;;;;;;10443072;28;20310;-73
2023/06/01 14:48:42;;;;;;;3.20;2.90;;;30.20;13.20;;;;;;10450227;28;20228;-73
2023/06/01 14:53:45;;;;;;;3.33;3.07;;;30.20;13.30;;;;;;10436423;28;20229;-76
2023/06/01 14:58:50;;;;;;;3.57;3.20;;;30.20;13.30;;;;;;10438955;28;20232;-73
2023/06/01 15:03:53;;;;;;;3.80;3.27;;;30.30;13.40;;;;;;10435384;28;20677;-75
2023/06/01 15:08:58;;;;;;;3.73;3.20;;;30.20;13.50;;;;;;10451883;28;20236;-76
2023/06/01 15:14:03;;;;;;;2.83;2.63;;;30.30;13.40;;;;;;10406895;28;20264;-74
2023/06/01 15:19:06;;;;;;;3.87;3.30;;;30.30;13.40;;;;;;10421022;28;20235;-77
2023/06/01 15:24:09;;;;;;;4.83;3.43;;;30.30;13.60;;;;;;10439450;28;20236;-77
2023/06/01 15:29:14;;;;;;;3.17;2.83;;;30.30;13.50;;;;;;10452860;28;20977;-74
2023/06/01 15:34:18;;;;;;;2.93;2.73;;;30.40;13.70;;;;;;10429286;28;20247;-75
2023/06/01 15:39:23;;;;;;;3.40;3.10;;;30.50;13.80;;;;;;10423761;28;20240;-74
2023/06/01 15:44:27;;;;;;;3.80;2.63;;;30.50;13.70;;;;;;10446181;28;20260;-73
2023/06/01 15:49:30;;;;;;;3.90;3.27;;;30.50;13.20;;;;;;10446678;28;20890;-73
2023/06/01 15:54:34;;;;;;;3.37;3.10;;;30.50;13.40;;;;;;10439829;28;20224;-72
2023/06/01 15:59:39;;;;;;;3.10;2.63;;;30.50;13.40;;;;;;10443796;28;20308;-72
2023/06/01 16:04:42;;;;;;;3.07;2.70;;;30.40;13.10;;;;;;10442861;28;20229;-72
2023/06/01 16:09:45;;;;;;;2.80;2.60;;;30.20;13.20;;;;;;10443738;28;20229;-71
2023/06/01 16:14:51;;;;;;;3.63;2.90;;;30.10;13.50;;;;;;10443994;28;20225;-72
2023/06/01 16:19:54;;;;;;;3.33;2.93;;;30.00;13.20;;;;;;10444382;28;20229;-71
2023/06/01 16:24:57;;;;;;;3.00;2.80;;;29.90;13.60;;;;;;10444068;28;20239;-73
2023/06/01 16:30:02;;;;;;;3.90;2.80;;;29.90;13.40;;;;;;10443843;28;20237;-72
2023/06/01 16:35:06;;;;;;;3.13;2.63;;;29.90;13.20;;;;;;10443242;28;20232;-71
2023/06/01 16:40:10;;;;;;;2.40;2.30;;;29.90;13.60;;;;;;10443171;28;20236;-72
2023/06/01 16:45:14;;;;;;;2.70;2.50;;;29.90;13.40;;;;;;10442463;28;20585;-72
2023/06/01 16:50:18;;;;;;;3.17;2.80;;;29.90;13.70;;;;;;10442924;28;20794;-72
2023/06/01 16:55:21;;;;;;;3.33;2.33;;;29.90;13.40;;;;;;10443063;28;20243;-72
2023/06/01 17:00:28;;;;;;;2.57;2.30;;;29.90;13.70;;;;;;10434026;28;20225;-72
2023/06/01 17:05:32;;;;;;;2.47;2.27;;;29.90;14.10;;;;;;10442216;28;20638;-71
2023/06/01 17:10:35;;;;;;;2.67;2.47;;;29.80;13.30;;;;;;10432287;28;20239;-72
2023/06/01 17:15:40;;;;;;;3.13;2.20;;;29.70;13.10;;;;;;10441716;28;20656;-72
2023/06/01 17:20:43;;;;;;;3.80;2.30;;;29.60;13.60;;;;;;10464612;28;20224;-72
2023/06/01 17:25:46;;;;;;;2.30;2.10;;;29.50;13.70;;;;;;10485588;28;20331;-72
2023/06/01 17:30:51;;;;;;;3.97;2.40;;;29.30;13.70;;;;;;10491658;28;20563;-72
2023/06/01 17:35:56;;;;;;;3.13;1.93;;;29.20;13.80;;;;;;10491365;28;20285;-72
2023/06/01 17:40:59;;;;;;;2.33;2.20;;;29.10;13.60;;;;;;10491268;28;20263;-71
2023/06/01 17:46:05;;;;;;;2.13;2.03;;;29.00;14.00;;;;;;10490771;28;20243;-71
2023/06/01 17:51:08;;;;;;;2.40;2.20;;;28.90;13.90;;;;;;10463291;28;20237;-71
2023/06/01 17:56:12;;;;;;;2.17;2.00;;;28.80;14.10;;;;;;10490733;28;20724;-72
2023/06/01 18:01:17;;;;;;;2.23;2.03;;;28.80;14.10;;;;;;10490555;28;20317;-72
2023/06/01 18:06:20;;;;;;;2.47;2.20;;;28.70;14.10;;;;;;10491309;28;20224;-71
2023/06/01 18:11:23;;;;;;;2.20;2.00;;;28.70;14.10;;;;;;10455491;28;20229;-71
2023/06/01 18:16:28;;;;;;;4.37;2.20;;;28.60;14.10;;;;;;10448558;28;20225;-71
2023/06/01 18:21:32;;;;;;;2.60;2.30;;;28.50;14.20;;;;;;10446355;28;20758;-71
2023/06/01 18:26:36;;;;;;;2.20;2.10;;;28.40;14.30;;;;;;10447514;28;20229;-71
2023/06/01 18:31:41;;;;;;;2.20;1.93;;;28.30;14.30;;;;;;10441289;28;20232;-73
2023/06/01 18:36:45;;;;;;;2.40;2.20;;;28.20;14.40;;;;;;10438245;28;20263;-72
2023/06/01 18:41:48;;;;;;;3.20;2.10;;;28.10;14.50;;;;;;10433828;28;20240;-73
2023/06/01 18:46:53;;;;;;;2.43;2.20;;;27.90;14.70;;;;;;10447120;28;20229;-73
2023/06/01 18:51:56;;;;;;;3.53;2.07;;;27.80;15.30;;;;;;10429478;28;20922;-73
2023/06/01 18:57:00;;;;;;;2.47;2.27;;;27.70;15.50;;;;;;10425311;28;20612;-75
2023/06/01 19:02:08;;;;;;;4.30;2.20;;;27.50;15.60;;;;;;10450902;28;20931;-74
2023/06/01 19:07:36;;;;;;;2.57;2.30;;;27.40;16.30;;;;;;10466785;28;20328;-74
2023/06/01 19:12:41;;;;;;;4.03;2.20;;;27.20;16.50;;;;;;10438744;28;20255;-74
2023/06/01 19:17:46;;;;;;;2.90;2.10;;;27.10;16.40;;;;;;10439677;28;20228;-74
2023/06/01 19:22:49;;;;;;;3.60;2.13;;;26.90;17.00;;;;;;10449345;28;20245;-75
2023/06/01 19:27:52;;;;;;;2.33;2.17;;;26.70;17.00;;;;;;10459414;28;20367;-76
2023/06/01 19:32:58;;;;;;;2.53;2.30;;;26.70;17.20;;;;;;10429027;28;20578;-73
2023/06/01 19:38:02;;;;;;;2.40;2.20;;;26.50;17.30;;;;;;10413596;28;20247;-75
2023/06/01 19:43:05;;;;;;;2.87;2.13;;;26.50;17.20;;;;;;10414731;28;20332;-74
2023/06/01 19:48:26;;;;;;;2.20;2.10;;;26.40;17.00;;;;;;10416362;28;21005;-73
2023/06/01 19:53:29;;;;;;;6.37;2.47;;;26.30;17.80;;;;;;10421092;28;20233;-74
2023/06/01 19:58:32;;;;;;;2.53;2.20;;;26.30;17.60;;;;;;10413137;28;21068;-74
2023/06/01 20:03:37;;;;;;;4.27;3.00;;;26.10;17.70;;;;;;10440892;28;20224;-71
2023/06/01 20:08:41;;;;;;;2.97;2.67;;;26.10;18.30;;;;;;10469272;28;20224;-73
2023/06/01 20:13:44;;;;;;;3.57;3.00;;;26.00;18.10;;;;;;10469409;28;20227;-72
2023/06/01 20:18:48;;;;;;;3.00;2.80;;;25.70;18.10;;;;;;10415227;28;20232;-74
2023/06/01 20:23:52;;;;;;;3.30;3.00;;;25.40;18.70;;;;;;10417184;28;20355;-75
2023/06/01 20:28:55;;;;;;;3.50;3.20;;;25.20;18.70;;;;;;10415679;28;20247;-75
2023/06/01 20:34:00;;;;;;;5.70;4.33;;;24.90;18.50;;;;;;10418022;28;20315;-76
2023/06/01 20:39:08;;;;;;;6.60;4.73;;;24.70;19.00;;;;;;10434463;28;20238;-76
2023/06/01 20:44:17;;;;;;;5.27;4.03;;;24.40;19.00;;;;;;10434737;28;20884;-77
2023/06/01 20:49:23;;;;;;;6.27;4.30;;;24.20;19.60;;;;;;10442917;28;20217;-76
2023/06/01 20:54:28;;;;;;;4.23;3.20;;;24.00;19.90;;;;;;10443000;28;20224;-76
2023/06/01 20:59:32;;;;;;;5.80;3.23;;;23.80;19.90;;;;;;10440279;28;20232;-77
2023/06/01 21:04:38;;;;;;;4.13;3.10;;;23.60;19.90;;;;;;10444669;28;20942;-76
2023/06/01 21:09:41;;;;;;;8.10;3.50;;;23.40;20.60;;;;;;10447243;28;20228;-76
2023/06/01 21:14:45;;;;;;;4.23;3.20;;;23.30;20.30;;;;;;10439617;28;20229;-76
2023/06/01 21:19:49;;;;;;;4.40;3.30;;;23.20;20.40;;;;;;10439746;28;20260;-76
2023/06/01 21:24:53;;;;;;;3.27;3.07;;;23.10;20.90;;;;;;10434695;28;20232;-76
2023/06/01 21:29:56;;;;;;;3.07;2.77;;;22.90;20.50;;;;;;10441519;28;20228;-76
2023/06/01 21:35:01;;;;;;;3.23;2.93;;;22.90;20.80;;;;;;10436927;28;20233;-76
2023/06/01 21:40:05;;;;;;;3.13;2.67;;;22.80;21.30;;;;;;10449346;28;20835;-77
2023/06/01 21:45:10;;;;;;;3.47;3.10;;;22.80;21.20;;;;;;10439895;28;20247;-77
2023/06/01 21:50:15;;;;;;;3.00;2.50;;;22.70;21.20;;;;;;10435079;28;20228;-77
2023/06/01 21:55:18;;;;;;;3.03;2.83;;;22.60;21.40;;;;;;10435978;28;20228;-77
2023/06/01 22:00:22;;;;;;;3.37;2.90;;;22.50;21.40;;;;;;10442723;28;20233;-77
2023/06/01 22:05:27;;;;;;;6.80;2.90;;;22.30;21.40;;;;;;10432356;28;20233;-76
2023/06/01 22:10:31;;;;;;;3.20;2.90;;;22.20;21.80;;;;;;10433652;28;20233;-78
2023/06/01 22:15:34;;;;;;;3.03;2.53;;;22.00;21.70;;;;;;10444563;28;20240;-76
2023/06/01 22:20:39;;;;;;;3.03;2.73;;;21.80;21.90;;;;;;10454677;28;20282;-77
2023/06/01 22:25:42;;;;;;;2.70;2.47;;;21.70;22.60;;;;;;10446004;28;20232;-76
2023/06/01 22:30:46;;;;;;;4.23;2.70;;;21.50;22.30;;;;;;10446486;28;21120;-74
2023/06/01 22:35:50;;;;;;;5.83;2.77;;;21.50;22.50;;;;;;10452507;28;20252;-75
2023/06/01 22:40:54;;;;;;;2.73;2.53;;;21.60;22.90;;;;;;10449524;28;20257;-75
2023/06/01 22:45:57;;;;;;;3.20;2.70;;;21.60;22.50;;;;;;10450445;28;20261;-75
2023/06/01 22:51:02;;;;;;;2.93;2.50;;;21.50;22.60;;;;;;10442939;28;20260;-75
2023/06/01 22:56:07;;;;;;;3.33;2.60;;;21.50;22.80;;;;;;10455214;28;20690;-75
2023/06/01 23:01:11;;;;;;;2.77;2.57;;;21.50;22.70;;;;;;10444307;28;20237;-76
2023/06/01 23:06:16;;;;;;;3.10;2.70;;;21.50;22.80;;;;;;10440639;28;20232;-75
2023/06/01 23:11:27;;;;;;;4.03;2.50;;;21.40;23.00;;;;;;10460726;28;20303;-75
2023/06/01 23:16:32;;;;;;;3.03;2.73;;;21.30;22.80;;;;;;10449581;28;20887;-75
2023/06/01 23:21:43;;;;;;;5.33;3.10;;;21.10;23.00;;;;;;10441260;28;20242;-75
2023/06/01 23:26:47;;;;;;;5.70;3.20;;;21.00;23.40;;;;;;10435374;28;20230;-75
2023/06/01 23:31:50;;;;;;;4.97;3.23;;;20.80;23.30;;;;;;10445186;28;20244;-76
2023/06/01 23:37:00;;;;;;;3.10;2.80;;;20.60;23.30;;;;;;10444170;28;20236;-75
2023/06/01 23:42:05;;;;;;;3.10;2.80;;;20.40;23.80;;;;;;10442804;28;20228;-75
2023/06/01 23:47:09;;;;;;;3.23;2.90;;;20.20;23.80;;;;;;10444318;28;20854;-76
2023/06/01 23:52:14;;;;;;;4.60;2.93;;;20.20;24.10;;;;;;10443701;28;20328;-76
2023/06/01 23:57:17;;;;;;;3.60;3.30;;;20.20;24.50;;;;;;10448243;28;20307;-76
